createdAt,value
2019-02-06T00:00:41.482Z,54.13
2019-02-06T00:03:12.001Z,60.33
2019-02-06T00:05:40.862Z,52.33
2019-02-06T00:08:09.445Z,54.80
2019-02-06T00:10:37.871Z,56.33
2019-02-06T00:13:08.868Z,57.60
2019-02-06T00:15:37.530Z,50.10
2019-02-06T00:18:07.018Z,53.27
2019-02-06T00:20:35.833Z,48.47
2019-02-06T00:23:04.433Z,45.43
2019-02-06T00:25:32.916Z,49.00
2019-02-06T00:28:01.376Z,53.17
2019-02-06T00:30:29.854Z,49.60
2019-02-06T00:32:58.295Z,52.47
2019-02-06T00:35:27.111Z,49.17
2019-02-06T00:37:55.532Z,51.10
2019-02-06T00:40:24.053Z,47.47
2019-02-06T00:42:52.496Z,48.83
2019-02-06T00:45:20.921Z,44.87
2019-02-06T00:47:49.441Z,43.20
2019-02-06T00:50:18.369Z,45.63
2019-02-06T00:52:46.808Z,51.07
2019-02-06T00:55:16.109Z,51.63
2019-02-06T00:57:44.528Z,47.23
2019-02-06T01:00:20.832Z,46.70
2019-02-06T01:02:50.707Z,46.00
2019-02-06T01:05:19.522Z,41.93
2019-02-06T01:07:48.019Z,51.00
2019-02-06T01:10:19.143Z,42.13
2019-02-06T01:12:47.635Z,49.47
2019-02-06T01:15:16.254Z,51.80
2019-02-06T01:17:44.684Z,44.60
2019-02-06T01:20:15.972Z,51.57
2019-02-06T01:22:44.486Z,49.50
2019-02-06T01:25:16.126Z,47.17
2019-02-06T01:27:44.830Z,46.73
2019-02-06T01:30:17.346Z,46.07
2019-02-06T01:32:45.791Z,42.07
2019-02-06T01:35:14.833Z,49.13
2019-02-06T01:37:43.349Z,46.20
2019-02-06T01:40:15.030Z,42.70
2019-02-06T01:42:43.590Z,41.47
2019-02-06T01:45:15.633Z,45.97
2019-02-06T01:47:44.194Z,46.50
2019-02-06T01:50:15.460Z,49.53
2019-02-06T01:52:44.062Z,52.77
2019-02-06T01:55:14.752Z,48.07
2019-02-06T01:57:43.265Z,49.97
2019-02-06T02:00:23.717Z,50.13
2019-02-06T02:02:52.391Z,47.23
2019-02-06T02:05:22.462Z,49.07
2019-02-06T02:07:51.640Z,47.13
2019-02-06T02:10:21.159Z,47.43
2019-02-06T02:12:50.218Z,44.73
2019-02-06T02:15:19.589Z,44.00
2019-02-06T02:17:48.235Z,43.63
2019-02-06T02:20:22.028Z,46.87
2019-02-06T02:22:50.920Z,47.03
2019-02-06T02:25:19.545Z,47.67
2019-02-06T02:27:48.079Z,47.20
2019-02-06T02:30:32.340Z,45.20
2019-02-06T02:33:00.758Z,51.50
2019-02-06T02:35:29.195Z,49.47
2019-02-06T02:37:57.647Z,52.23
2019-02-06T02:40:26.154Z,47.63
2019-02-06T02:42:55.089Z,47.93
2019-02-06T02:45:23.572Z,45.07
2019-02-06T02:47:52.097Z,55.60
2019-02-06T02:50:20.505Z,57.40
2019-02-06T02:52:49.121Z,44.57
2019-02-06T02:55:17.540Z,48.63
2019-02-06T02:57:45.960Z,46.23
2019-02-06T03:00:21.019Z,48.87
2019-02-06T03:02:54.465Z,46.57
2019-02-06T03:05:24.579Z,54.07
2019-02-06T03:07:53.032Z,47.73
2019-02-06T03:10:21.439Z,45.63
2019-02-06T03:12:49.955Z,48.40
2019-02-06T03:15:18.779Z,47.10
2019-02-06T03:17:47.236Z,48.63
2019-02-06T03:20:15.851Z,51.07
2019-02-06T03:22:44.358Z,43.70
2019-02-06T03:25:14.419Z,41.23
2019-02-06T03:27:43.105Z,46.23
2019-02-06T03:30:19.706Z,49.23
2019-02-06T03:32:48.354Z,46.00
2019-02-06T03:35:18.336Z,45.57
2019-02-06T03:37:47.668Z,44.47
2019-02-06T03:40:18.350Z,48.43
2019-02-06T03:42:46.854Z,40.30
2019-02-06T03:45:16.160Z,47.77
2019-02-06T03:47:44.682Z,49.57
2019-02-06T03:50:16.427Z,47.73
2019-02-06T03:52:44.879Z,47.30
2019-02-06T03:55:13.962Z,44.93
2019-02-06T03:57:42.448Z,52.63
2019-02-06T04:00:17.012Z,52.90
2019-02-06T04:02:46.059Z,49.33
2019-02-06T04:05:14.870Z,47.83
2019-02-06T04:07:43.391Z,50.37
2019-02-06T04:10:19.201Z,54.03
2019-02-06T04:12:47.647Z,55.33
2019-02-06T04:15:18.019Z,51.27
2019-02-06T04:17:46.527Z,52.50
2019-02-06T04:20:17.321Z,52.93
2019-02-06T04:22:45.828Z,58.33
2019-02-06T04:25:15.128Z,51.10
2019-02-06T04:27:43.600Z,52.67
2019-02-06T04:30:17.263Z,49.40
2019-02-06T04:32:45.877Z,47.67
2019-02-06T04:35:16.185Z,49.37
2019-02-06T04:37:44.834Z,50.37
2019-02-06T04:40:16.367Z,54.93
2019-02-06T04:42:44.833Z,46.83
2019-02-06T04:45:18.231Z,50.30
2019-02-06T04:47:46.907Z,48.57
2019-02-06T04:50:17.453Z,47.33
2019-02-06T04:52:45.933Z,40.43
2019-02-06T04:55:18.203Z,40.67
2019-02-06T04:57:47.033Z,43.90
2019-02-06T05:00:28.479Z,43.33
2019-02-06T05:02:57.039Z,49.37
2019-02-06T05:05:25.492Z,45.57
2019-02-06T05:07:53.973Z,36.60
2019-02-06T05:10:22.451Z,41.80
2019-02-06T05:12:51.045Z,39.40
2019-02-06T05:15:19.671Z,40.37
2019-02-06T05:17:48.196Z,37.90
2019-02-06T05:20:31.626Z,37.87
2019-02-06T05:23:00.132Z,40.40
2019-02-06T05:25:29.124Z,38.77
2019-02-06T05:27:57.676Z,42.97
2019-02-06T05:30:26.222Z,43.67
2019-02-06T05:32:54.631Z,43.13
2019-02-06T05:35:25.710Z,41.17
2019-02-06T05:37:54.177Z,37.80
2019-02-06T05:40:23.435Z,44.37
2019-02-06T05:42:52.927Z,42.47
2019-02-06T05:45:21.530Z,41.43
2019-02-06T05:47:49.981Z,48.80
2019-02-06T05:50:19.750Z,42.80
2019-02-06T05:52:48.265Z,44.17
2019-02-06T05:55:20.027Z,50.03
2019-02-06T05:57:48.837Z,39.83
2019-02-06T06:00:22.017Z,44.37
2019-02-06T06:02:50.507Z,44.13
2019-02-06T06:05:18.955Z,41.27
2019-02-06T06:07:47.440Z,40.17
2019-02-06T06:10:18.121Z,42.33
2019-02-06T06:12:46.913Z,41.93
2019-02-06T06:15:20.205Z,43.40
2019-02-06T06:17:48.821Z,41.37
2019-02-06T06:20:21.299Z,39.33
2019-02-06T06:22:50.321Z,39.17
2019-02-06T06:25:21.044Z,39.23
2019-02-06T06:27:49.900Z,37.27
2019-02-06T06:30:20.247Z,38.10
2019-02-06T06:32:48.976Z,40.33
2019-02-06T06:35:17.493Z,44.83
2019-02-06T06:37:57.568Z,38.10
2019-02-06T06:40:19.086Z,37.77
2019-02-06T06:42:48.239Z,38.17
2019-02-06T06:45:21.936Z,40.37
2019-02-06T06:47:50.945Z,36.80
2019-02-06T06:50:21.411Z,40.03
2019-02-06T06:52:49.864Z,34.80
2019-02-06T06:55:18.402Z,39.47
2019-02-06T06:57:46.900Z,37.27
2019-02-06T07:00:24.292Z,39.60
2019-02-06T07:02:52.982Z,35.17
2019-02-06T07:05:21.353Z,36.57
2019-02-06T07:07:50.865Z,36.37
2019-02-06T07:10:20.117Z,37.37
2019-02-06T07:12:48.604Z,34.80
2019-02-06T07:15:28.741Z,33.13
2019-02-06T07:17:57.232Z,36.10
2019-02-06T07:20:25.788Z,33.83
2019-02-06T07:22:54.287Z,36.93
2019-02-06T07:25:22.695Z,35.57
2019-02-06T07:27:51.163Z,30.30
2019-02-06T07:30:25.793Z,29.03
2019-02-06T07:32:54.825Z,31.23
2019-02-06T07:35:23.352Z,32.13
2019-02-06T07:37:51.807Z,31.00
2019-02-06T07:40:20.444Z,33.47
2019-02-06T07:42:49.365Z,31.53
2019-02-06T07:45:19.547Z,30.07
2019-02-06T07:47:48.125Z,30.53
2019-02-06T07:50:25.288Z,28.03
2019-02-06T07:52:54.086Z,30.07
2019-02-06T07:55:22.508Z,29.20
2019-02-06T07:57:50.932Z,30.40
2019-02-06T08:00:19.417Z,27.83
2019-02-06T08:02:48.134Z,25.23
2019-02-06T08:05:19.262Z,28.67
2019-02-06T08:07:48.855Z,23.87
2019-02-06T08:10:20.239Z,27.33
2019-02-06T08:12:48.866Z,25.77
2019-02-06T08:15:19.446Z,21.40
2019-02-06T08:17:47.961Z,24.67
2019-02-06T08:20:19.451Z,22.87
2019-02-06T08:22:47.966Z,22.83
2019-02-06T08:25:18.550Z,23.43
2019-02-06T08:27:47.856Z,22.00
2019-02-06T08:30:20.164Z,21.77
2019-02-06T08:32:49.058Z,20.10
2019-02-06T08:35:17.582Z,23.13
2019-02-06T08:37:46.270Z,22.13
2019-02-06T08:40:18.585Z,21.47
2019-02-06T08:42:47.192Z,21.33
2019-02-06T08:45:17.270Z,21.50
2019-02-06T08:47:46.085Z,22.50
2019-02-06T08:50:19.781Z,18.80
2019-02-06T08:52:48.959Z,21.97
2019-02-06T08:55:21.030Z,20.10
2019-02-06T08:57:49.590Z,20.47
2019-02-06T09:00:24.038Z,17.67
2019-02-06T09:02:52.661Z,20.63
2019-02-06T09:05:21.088Z,22.67
2019-02-06T09:07:50.039Z,22.37
2019-02-06T09:10:23.758Z,20.70
2019-02-06T09:12:53.639Z,19.37
2019-02-06T09:15:22.327Z,23.97
2019-02-06T09:17:50.830Z,23.03
2019-02-06T09:20:24.977Z,20.80
2019-02-06T09:22:57.020Z,25.97
2019-02-06T09:25:27.002Z,25.93
2019-02-06T09:27:56.300Z,23.07
2019-02-06T09:30:27.259Z,23.57
2019-02-06T09:32:56.629Z,26.80
2019-02-06T09:35:25.636Z,27.53
2019-02-06T09:37:54.731Z,25.87
2019-02-06T09:40:25.827Z,22.50
2019-02-06T09:42:54.475Z,24.90
2019-02-06T09:45:23.069Z,21.43
2019-02-06T09:47:51.712Z,21.60
2019-02-06T09:50:23.730Z,22.83
2019-02-06T09:52:52.247Z,23.00
2019-02-06T09:55:20.761Z,21.97
2019-02-06T09:57:49.203Z,20.73
2019-02-06T10:00:26.125Z,25.27
2019-02-06T10:02:54.647Z,22.37
2019-02-06T10:05:23.643Z,20.87
2019-02-06T10:07:52.136Z,21.47
2019-02-06T10:10:23.338Z,23.03
2019-02-06T10:12:51.928Z,24.13
2019-02-06T10:15:29.309Z,24.53
2019-02-06T10:17:58.568Z,21.53
2019-02-06T10:20:35.917Z,22.50
2019-02-06T10:23:04.824Z,23.57
2019-02-06T10:25:33.396Z,22.50
2019-02-06T10:28:01.984Z,26.77
2019-02-06T10:30:36.091Z,24.03
2019-02-06T10:33:04.778Z,22.17
2019-02-06T10:35:33.266Z,23.90
2019-02-06T10:38:01.821Z,24.93
2019-02-06T10:40:30.381Z,24.97
2019-02-06T10:42:58.883Z,23.93
2019-02-06T10:45:27.433Z,23.77
2019-02-06T10:47:56.182Z,22.40
2019-02-06T10:50:30.199Z,24.10
2019-02-06T10:52:58.780Z,22.20
2019-02-06T10:55:27.290Z,23.10
2019-02-06T10:57:55.871Z,23.10
2019-02-06T11:00:29.910Z,22.97
2019-02-06T11:02:58.745Z,22.43
2019-02-06T11:05:27.343Z,24.97
2019-02-06T11:07:55.787Z,22.03
2019-02-06T11:10:26.455Z,26.10
2019-02-06T11:12:54.984Z,23.30
2019-02-06T11:15:24.135Z,26.33
2019-02-06T11:17:53.029Z,22.87
2019-02-06T11:20:30.132Z,23.33
2019-02-06T11:22:58.557Z,21.77
2019-02-06T11:25:28.637Z,27.03
2019-02-06T11:27:57.109Z,24.33
2019-02-06T11:30:31.366Z,24.37
2019-02-06T11:32:59.916Z,22.20
2019-02-06T11:35:28.410Z,20.87
2019-02-06T11:37:57.250Z,24.30
2019-02-06T11:40:26.236Z,23.53
2019-02-06T11:42:54.897Z,25.37
2019-02-06T11:45:28.948Z,24.67
2019-02-06T11:47:57.538Z,24.97
2019-02-06T11:50:28.064Z,24.43
2019-02-06T11:52:56.534Z,26.33
2019-02-06T11:55:27.698Z,24.37
2019-02-06T11:57:56.329Z,21.10
2019-02-06T12:00:36.096Z,24.97
2019-02-06T12:03:05.059Z,20.37
2019-02-06T12:05:33.550Z,17.33
2019-02-06T12:08:02.141Z,15.37
2019-02-06T12:10:30.639Z,17.70
2019-02-06T12:12:59.164Z,13.13
2019-02-06T12:15:27.817Z,13.47
2019-02-06T12:17:56.451Z,14.93
2019-02-06T12:20:25.877Z,13.37
2019-02-06T12:22:54.517Z,13.67
2019-02-06T12:25:23.017Z,15.23
2019-02-06T12:27:54.042Z,15.17
2019-02-06T12:30:41.509Z,15.10
2019-02-06T12:33:10.127Z,15.93
2019-02-06T12:35:38.615Z,15.67
2019-02-06T12:38:07.330Z,19.33
2019-02-06T12:40:36.408Z,16.43
2019-02-06T12:43:07.174Z,13.43
2019-02-06T12:45:37.304Z,16.60
2019-02-06T12:48:07.018Z,14.63
2019-02-06T12:50:35.943Z,18.17
2019-02-06T12:53:04.802Z,18.07
2019-02-06T12:55:42.823Z,16.43
2019-02-06T12:58:11.409Z,17.10
2019-02-06T13:00:43.006Z,14.97
2019-02-06T13:03:11.949Z,20.30
2019-02-06T13:05:40.575Z,20.17
2019-02-06T13:08:09.142Z,15.00
2019-02-06T13:10:37.702Z,17.20
2019-02-06T13:13:07.641Z,16.27
2019-02-06T13:15:36.482Z,16.10
2019-02-06T13:18:05.590Z,16.87
2019-02-06T13:20:36.647Z,17.47
2019-02-06T13:23:07.312Z,17.13
2019-02-06T13:25:35.740Z,16.87
2019-02-06T13:28:05.096Z,23.27
2019-02-06T13:30:36.437Z,24.00
2019-02-06T13:33:07.023Z,16.03
2019-02-06T13:35:35.985Z,19.37
2019-02-06T13:38:04.531Z,18.37
2019-02-06T13:40:44.778Z,18.60
2019-02-06T13:43:03.896Z,18.17
2019-02-06T13:45:37.991Z,19.33
2019-02-06T13:48:07.007Z,16.07
2019-02-06T13:50:35.770Z,18.27
2019-02-06T13:53:04.575Z,17.80
2019-02-06T13:55:32.996Z,18.87
2019-02-06T13:58:01.518Z,19.93
2019-02-06T14:00:35.860Z,18.50
2019-02-06T14:03:06.033Z,20.60
2019-02-06T14:05:34.852Z,15.03
2019-02-06T14:08:11.978Z,16.10
2019-02-06T14:10:40.556Z,16.27
2019-02-06T14:13:08.997Z,17.90
2019-02-06T14:15:40.475Z,18.83
2019-02-06T14:18:09.475Z,19.83
2019-02-06T14:20:38.437Z,17.00
2019-02-06T14:23:16.873Z,20.93
2019-02-06T14:25:54.449Z,19.27
2019-02-06T14:28:31.775Z,23.17
2019-02-06T14:31:18.276Z,18.73
2019-02-06T14:33:52.644Z,16.67
2019-02-06T14:36:26.928Z,16.57
2019-02-06T14:39:14.930Z,17.13
2019-02-06T14:41:52.724Z,18.83
2019-02-06T14:44:57.495Z,22.63
2019-02-06T14:47:35.490Z,18.23
2019-02-06T14:50:23.403Z,18.23
2019-02-06T14:53:28.078Z,17.30
2019-02-06T14:56:21.871Z,16.53
2019-02-06T14:59:02.421Z,18.93
2019-02-06T15:01:39.903Z,17.27
2019-02-06T15:04:40.440Z,20.47
2019-02-06T15:07:14.842Z,18.07
2019-02-06T15:10:10.053Z,18.00
2019-02-06T15:12:47.981Z,18.23
2019-02-06T15:15:25.158Z,17.80
2019-02-06T15:18:08.402Z,18.87
2019-02-06T15:20:46.095Z,17.17
2019-02-06T15:23:37.095Z,16.47
2019-02-06T15:26:14.649Z,16.70
2019-02-06T15:28:57.000Z,20.17
2019-02-06T15:31:37.462Z,15.77
2019-02-06T15:34:31.857Z,17.17
2019-02-06T15:37:27.378Z,15.70
2019-02-06T15:40:18.159Z,20.33
2019-02-06T15:42:58.541Z,15.87
2019-02-06T15:45:39.031Z,18.43
2019-02-06T15:48:19.419Z,15.80
2019-02-06T15:51:19.505Z,16.10
2019-02-06T15:53:56.942Z,18.10
2019-02-06T15:56:34.223Z,16.70
2019-02-06T15:59:20.763Z,17.60
2019-02-06T16:02:13.431Z,16.20
2019-02-06T16:05:02.768Z,19.73
2019-02-06T16:07:49.023Z,15.73
2019-02-06T16:10:35.787Z,15.60
2019-02-06T16:13:13.073Z,15.13
2019-02-06T16:15:53.569Z,16.27
2019-02-06T16:18:37.099Z,15.43
2019-02-06T16:21:26.454Z,16.00
2019-02-06T16:24:16.113Z,17.43
2019-02-06T16:26:59.546Z,17.83
2019-02-06T16:29:40.641Z,16.53
2019-02-06T16:32:35.819Z,15.47
2019-02-06T16:35:13.458Z,15.07
2019-02-06T16:37:50.759Z,16.90
2019-02-06T16:40:34.215Z,14.70
2019-02-06T16:43:05.718Z,14.83
2019-02-06T16:45:46.287Z,16.47
2019-02-06T16:48:20.482Z,16.67
2019-02-06T16:51:00.797Z,15.10
2019-02-06T16:54:04.067Z,19.30
2019-02-06T16:56:52.903Z,15.93
2019-02-06T16:59:46.960Z,16.10
2019-02-06T17:02:21.493Z,14.73
2019-02-06T17:05:09.569Z,14.93
2019-02-06T17:07:49.701Z,15.03
2019-02-06T17:10:32.846Z,13.80
2019-02-06T17:13:07.583Z,14.97
2019-02-06T17:15:45.180Z,18.13
2019-02-06T17:18:19.397Z,15.43
2019-02-06T17:21:12.025Z,18.47
2019-02-06T17:24:03.168Z,17.27
2019-02-06T17:26:37.422Z,15.90
2019-02-06T17:29:31.410Z,14.70
2019-02-06T17:32:18.249Z,15.53
2019-02-06T17:34:52.753Z,15.37
2019-02-06T17:37:33.255Z,16.37
2019-02-06T17:40:19.141Z,14.03
2019-02-06T17:43:05.948Z,15.53
2019-02-06T17:46:03.105Z,13.57
2019-02-06T17:48:43.944Z,14.10
2019-02-06T17:51:15.513Z,14.23
2019-02-06T17:53:49.670Z,17.57
2019-02-06T17:56:19.423Z,15.63
2019-02-06T17:58:47.940Z,14.33
2019-02-06T18:01:19.596Z,18.87
2019-02-06T18:03:49.623Z,16.77
2019-02-06T18:06:18.164Z,17.70
2019-02-06T18:08:56.479Z,18.60
2019-02-06T18:11:16.985Z,16.40
2019-02-06T18:13:45.780Z,20.33
2019-02-06T18:16:21.056Z,17.87
2019-02-06T18:18:44.668Z,18.43
2019-02-06T18:21:13.240Z,16.50
2019-02-06T18:23:41.749Z,15.73
2019-02-06T18:26:10.395Z,20.17
2019-02-06T18:28:39.359Z,18.27
2019-02-06T18:31:08.432Z,18.63
2019-02-06T18:33:36.893Z,17.97
2019-02-06T18:36:06.814Z,17.70
2019-02-06T18:38:46.354Z,17.57
2019-02-06T18:41:07.096Z,15.40
2019-02-06T18:43:35.704Z,17.53
2019-02-06T18:46:04.705Z,18.73
2019-02-06T18:48:33.801Z,15.93
2019-02-06T18:51:03.428Z,15.63
2019-02-06T18:53:32.070Z,16.60
2019-02-06T18:56:00.605Z,17.00
2019-02-06T18:58:29.193Z,16.40
2019-02-06T19:00:58.005Z,22.40
2019-02-06T19:03:35.364Z,17.47
2019-02-06T19:06:04.265Z,15.97
2019-02-06T19:08:33.099Z,14.67
2019-02-06T19:11:01.676Z,16.93
2019-02-06T19:13:30.172Z,14.07
2019-02-06T19:15:58.758Z,12.80
2019-02-06T19:18:37.193Z,14.77
2019-02-06T19:21:05.278Z,13.73
2019-02-06T19:23:34.071Z,13.13
2019-02-06T19:26:02.590Z,13.60
2019-02-06T19:28:32.591Z,12.07
2019-02-06T19:31:01.073Z,13.60
2019-02-06T19:33:29.543Z,14.30
2019-02-06T19:35:58.051Z,13.73
2019-02-06T19:38:26.507Z,14.77
2019-02-06T19:40:55.015Z,14.67
2019-02-06T19:43:23.580Z,13.47
2019-02-06T19:45:52.033Z,13.60
2019-02-06T19:48:23.398Z,13.30
2019-02-06T19:50:51.830Z,10.87
2019-02-06T19:53:21.966Z,13.93
2019-02-06T19:55:50.474Z,15.20
2019-02-06T19:58:21.754Z,13.57
2019-02-06T20:00:50.197Z,12.10
2019-02-06T20:03:18.725Z,12.63
2019-02-06T20:05:47.329Z,14.90
2019-02-06T20:08:15.808Z,14.00
2019-02-06T20:10:47.252Z,13.53
2019-02-06T20:13:15.728Z,15.17
2019-02-06T20:15:44.218Z,16.17
2019-02-06T20:18:13.363Z,14.23
2019-02-06T20:20:41.988Z,14.23
2019-02-06T20:23:10.531Z,13.23
2019-02-06T20:25:39.076Z,14.03
2019-02-06T20:28:07.646Z,12.13
2019-02-06T20:30:36.159Z,15.43
2019-02-06T20:33:05.181Z,13.80
2019-02-06T20:35:34.534Z,12.53
2019-02-06T20:38:03.117Z,15.87
2019-02-06T20:40:37.374Z,14.37
2019-02-06T20:43:05.811Z,13.97
2019-02-06T20:45:34.265Z,13.77
2019-02-06T20:48:02.855Z,12.37
2019-02-06T20:50:37.891Z,13.73
2019-02-06T20:53:06.914Z,13.20
2019-02-06T20:55:36.213Z,15.27
2019-02-06T20:58:05.179Z,15.87
2019-02-06T21:00:42.590Z,17.07
2019-02-06T21:03:11.259Z,12.93
2019-02-06T21:05:40.290Z,12.37
2019-02-06T21:08:08.921Z,13.53
2019-02-06T21:10:37.533Z,14.63
2019-02-06T21:13:07.331Z,14.63
2019-02-06T21:15:35.848Z,14.10
2019-02-06T21:18:04.817Z,14.47
2019-02-06T21:20:33.388Z,13.70
2019-02-06T21:23:02.299Z,18.17
2019-02-06T21:25:30.962Z,15.10
2019-02-06T21:27:59.510Z,15.97
2019-02-06T21:30:33.948Z,12.97
2019-02-06T21:33:02.381Z,14.67
2019-02-06T21:35:30.914Z,15.20
2019-02-06T21:37:59.797Z,13.77
2019-02-06T21:40:36.306Z,18.93
2019-02-06T21:43:06.843Z,15.60
2019-02-06T21:45:36.118Z,13.13
2019-02-06T21:48:05.732Z,17.37
2019-02-06T21:50:34.184Z,15.87
2019-02-06T21:53:02.680Z,16.47
2019-02-06T21:55:31.381Z,14.80
2019-02-06T21:57:59.792Z,16.57
2019-02-06T22:00:36.532Z,16.83
2019-02-06T22:03:06.162Z,16.13
2019-02-06T22:05:35.300Z,15.00
2019-02-06T22:08:04.138Z,17.73
2019-02-06T22:10:32.747Z,16.77
2019-02-06T22:13:01.211Z,14.60
2019-02-06T22:15:31.458Z,15.87
2019-02-06T22:17:59.961Z,13.67
2019-02-06T22:20:28.973Z,20.47
2019-02-06T22:22:57.525Z,15.80
2019-02-06T22:25:25.999Z,14.87
2019-02-06T22:27:54.482Z,15.53
2019-02-06T22:30:28.876Z,15.87
2019-02-06T22:32:57.768Z,13.67
2019-02-06T22:35:26.522Z,18.97
2019-02-06T22:37:55.045Z,14.47
2019-02-06T22:40:25.348Z,17.73
2019-02-06T22:42:54.328Z,16.77
2019-02-06T22:45:25.414Z,16.83
2019-02-06T22:47:54.030Z,16.67
2019-02-06T22:50:25.688Z,16.97
2019-02-06T22:52:54.239Z,19.33
2019-02-06T22:55:22.739Z,14.03
2019-02-06T22:57:51.310Z,17.07
2019-02-06T23:00:51.357Z,16.53
2019-02-06T23:03:32.083Z,17.07
2019-02-06T23:06:00.664Z,17.03
2019-02-06T23:08:29.248Z,16.07
2019-02-06T23:10:58.316Z,13.77
2019-02-06T23:13:26.722Z,13.90
2019-02-06T23:15:55.253Z,16.40
2019-02-06T23:18:23.747Z,16.73
2019-02-06T23:20:52.175Z,16.33
2019-02-06T23:23:20.719Z,13.90
2019-02-06T23:25:49.127Z,15.30
2019-02-06T23:28:17.585Z,13.43
2019-02-06T23:30:46.066Z,14.20
2019-02-06T23:33:14.488Z,12.57
2019-02-06T23:35:42.930Z,14.97
2019-02-06T23:38:11.611Z,13.57
2019-02-06T23:40:40.212Z,12.97
2019-02-06T23:43:08.681Z,15.13
2019-02-06T23:45:37.198Z,15.87
2019-02-06T23:48:06.255Z,12.90
2019-02-06T23:50:34.671Z,14.90
2019-02-06T23:53:03.150Z,15.67
2019-02-06T23:55:31.631Z,14.43
2019-02-06T23:58:00.433Z,15.30
